Time;durP1;ratioP1;P1;durP2;ratioP2;P2;SDS_P1;SDS_P2;PMS_P1;PMS_P2;Temp;Humidity;BMP_temperature;BMP_pressure;BME280_temperature;BME280_humidity;BME280_pressure;Samples;Min_cycle;Max_cycle;Signal;HPM_P1;HPM_P2
2022/10/22 00:01:30;;;;;;;;;;;384.00;2329.60;;;;;;5010621;28;19909;-60
2022/10/22 00:03:55;;;;;;;;;;;359.30;2329.60;;;;;;5010208;28;19956;-60
2022/10/22 00:06:21;;;;;;;;;;;359.20;2329.60;;;;;;5010422;28;19914;-60
2022/10/22 00:08:46;;;;;;;;;;;359.20;2329.60;;;;;;5010289;28;19918;-60
2022/10/22 00:11:13;;;;;;;;;;;359.30;2329.60;;;;;;5010488;28;20475;-59
2022/10/22 00:13:39;;;;;;;;;;;384.00;2329.60;;;;;;5012051;28;20355;-59
2022/10/22 00:16:05;;;;;;;;;;;384.10;2329.60;;;;;;5014126;28;19963;-60
2022/10/22 00:18:31;;;;;;;;;;;384.20;2329.60;;;;;;5014271;28;19909;-60
2022/10/22 00:20:56;;;;;;;;;;;384.30;2329.60;;;;;;5013966;28;19909;-60
2022/10/22 00:23:22;;;;;;;;;;;384.30;2329.60;;;;;;5014309;28;19909;-60
2022/10/22 00:25:47;;;;;;;;;;;384.20;2329.60;;;;;;5014245;28;20417;-59
2022/10/22 00:28:13;;;;;;;;;;;384.30;2329.60;;;;;;5014010;28;19928;-59
2022/10/22 00:30:39;;;;;;;;;;;384.30;2329.60;;;;;;5014159;28;19909;-59
2022/10/22 00:33:04;;;;;;;;;;;384.20;2329.60;;;;;;5013752;28;19909;-60
2022/10/22 00:35:31;;;;;;;;;;;384.10;2329.60;;;;;;5013505;28;19932;-60
2022/10/22 00:37:56;;;;;;;;;;;384.10;2329.60;;;;;;5013830;28;19917;-60
2022/10/22 00:40:22;;;;;;;;;;;384.30;2329.60;;;;;;5014011;28;19921;-59
2022/10/22 00:42:47;;;;;;;;;;;384.40;2329.60;;;;;;5013609;28;20315;-60
2022/10/22 00:45:15;;;;;;;;;;;384.40;2329.60;;;;;;5013848;28;19998;-59
2022/10/22 00:47:50;;;;;;;;;;;384.10;2329.60;;;;;;5013680;28;20427;-59
2022/10/22 00:50:55;;;;;;;;;;;359.20;2329.60;;;;;;5013492;28;20368;-60
2022/10/22 00:53:23;;;;;;;;;;;359.00;2329.60;;;;;;4953181;29;19910;-61
2022/10/22 00:55:51;;;;;;;;;;;359.20;2329.60;;;;;;4953238;29;19961;-60
2022/10/22 00:58:17;;;;;;;;;;;359.20;2329.60;;;;;;4952968;29;19910;-60
2022/10/22 01:00:43;;;;;;;;;;;359.20;2329.60;;;;;;4952880;29;20329;-60
2022/10/22 01:03:09;;;;;;;;;;;384.00;2329.60;;;;;;4952877;29;19911;-59
2022/10/22 01:05:42;;;;;;;;;;;359.20;2329.60;;;;;;4952694;29;19918;-60
2022/10/22 01:08:10;;;;;;;;;;;359.20;2329.60;;;;;;4952718;29;20008;-60
2022/10/22 01:10:36;;;;;;;;;;;359.20;2329.60;;;;;;4952842;29;19910;-60
2022/10/22 01:13:02;;;;;;;;;;;359.20;2329.60;;;;;;4952860;29;20440;-60
2022/10/22 01:15:30;;;;;;;;;;;359.20;2329.60;;;;;;4952714;28;20357;-59
2022/10/22 01:18:01;;;;;;;;;;;359.10;2329.60;;;;;;4952598;29;19961;-60
2022/10/22 01:21:00;;;;;;;;;;;359.10;2329.60;;;;;;4952643;29;19910;-60
2022/10/22 01:23:44;;;;;;;;;;;359.10;2329.60;;;;;;4918914;29;19910;-60
2022/10/22 01:26:09;;;;;;;;;;;359.20;2329.60;;;;;;4933446;29;19958;-60
2022/10/22 01:28:40;;;;;;;;;;;359.20;2329.60;;;;;;4933206;29;19919;-60
2022/10/22 01:31:07;;;;;;;;;;;359.30;2329.60;;;;;;4933233;29;19962;-59
2022/10/22 01:33:32;;;;;;;;;;;359.20;2329.60;;;;;;4933337;29;19915;-60
2022/10/22 01:35:58;;;;;;;;;;;359.20;2329.60;;;;;;4932945;29;19927;-59
2022/10/22 01:38:25;;;;;;;;;;;359.20;2329.60;;;;;;4933081;29;19917;-59
2022/10/22 01:40:50;;;;;;;;;;;359.20;2329.60;;;;;;4933260;29;19910;-59
2022/10/22 01:43:16;;;;;;;;;;;359.20;2329.60;;;;;;4932950;29;19938;-59
2022/10/22 01:45:42;;;;;;;;;;;359.00;2329.60;;;;;;4933226;29;19911;-59
2022/10/22 01:48:24;;;;;;;;;;;359.00;2329.60;;;;;;4932868;29;19919;-60
2022/10/22 01:50:57;;;;;;;;;;;359.00;2329.60;;;;;;4932885;29;19961;-60
2022/10/22 01:53:41;;;;;;;;;;;358.90;2329.60;;;;;;4932975;29;19910;-60
2022/10/22 01:56:15;;;;;;;;;;;358.90;2329.60;;;;;;4932832;29;19964;-60
2022/10/22 01:58:51;;;;;;;;;;;359.00;2329.60;;;;;;4962874;28;20348;-59
2022/10/22 02:01:22;;;;;;;;;;;359.00;2329.60;;;;;;5012297;28;19910;-60
2022/10/22 02:03:54;;;;;;;;;;;359.00;2329.60;;;;;;5011994;28;19910;-60
2022/10/22 02:06:21;;;;;;;;;;;358.90;2329.60;;;;;;5012286;28;19917;-60
2022/10/22 02:08:48;;;;;;;;;;;358.80;2329.60;;;;;;5011856;28;19917;-60
2022/10/22 02:11:14;;;;;;;;;;;358.70;2329.60;;;;;;5012091;28;20008;-60
2022/10/22 02:13:45;;;;;;;;;;;358.80;2329.60;;;;;;5012160;28;19953;-59
2022/10/22 02:16:12;;;;;;;;;;;358.90;2329.60;;;;;;4994102;28;20324;-59
2022/10/22 02:18:40;;;;;;;;;;;359.00;2329.60;;;;;;5011916;28;19909;-60
2022/10/22 02:21:06;;;;;;;;;;;359.00;2329.60;;;;;;5011664;28;19917;-60
2022/10/22 02:23:31;;;;;;;;;;;359.00;2329.60;;;;;;5012232;28;19909;-60
2022/10/22 02:26:10;;;;;;;;;;;359.00;2329.60;;;;;;5011815;28;19916;-60
2022/10/22 02:28:38;;;;;;;;;;;359.00;2329.60;;;;;;5011654;28;19918;-60
2022/10/22 02:31:08;;;;;;;;;;;359.00;2329.60;;;;;;5011653;28;19921;-60
2022/10/22 02:33:36;;;;;;;;;;;359.00;2329.60;;;;;;5011576;28;19910;-60
2022/10/22 02:36:02;;;;;;;;;;;359.00;2329.60;;;;;;5010958;28;19933;-59
2022/10/22 02:38:28;;;;;;;;;;;359.00;2329.60;;;;;;5011668;28;19909;-59
2022/10/22 02:40:53;;;;;;;;;;;359.00;2329.60;;;;;;5011636;28;20029;-60
2022/10/22 02:43:19;;;;;;;;;;;359.00;2329.60;;;;;;5011582;28;19917;-59
2022/10/22 02:45:45;;;;;;;;;;;358.90;2329.60;;;;;;5011267;28;19909;-60
2022/10/22 02:48:11;;;;;;;;;;;358.90;2329.60;;;;;;5011649;28;19918;-59
2022/10/22 02:50:36;;;;;;;;;;;358.90;2329.60;;;;;;5011306;28;20019;-60
2022/10/22 02:53:02;;;;;;;;;;;358.90;2329.60;;;;;;5011612;28;20331;-59
2022/10/22 02:55:28;;;;;;;;;;;358.90;2329.60;;;;;;5011383;28;20268;-59
2022/10/22 02:57:53;;;;;;;;;;;359.00;2329.60;;;;;;5011359;28;19959;-59
2022/10/22 03:00:19;;;;;;;;;;;359.00;2329.60;;;;;;5011452;28;19968;-59
2022/10/22 03:02:44;;;;;;;;;;;359.00;2329.60;;;;;;4993428;28;19909;-60
2022/10/22 03:05:10;;;;;;;;;;;359.00;2329.60;;;;;;5011207;28;20368;-60
2022/10/22 03:07:35;;;;;;;;;;;359.00;2329.60;;;;;;5010832;28;19910;-60
2022/10/22 03:10:01;;;;;;;;;;;358.90;2329.60;;;;;;5011341;28;19916;-59
2022/10/22 03:12:26;;;;;;;;;;;358.80;2329.60;;;;;;5010976;28;20340;-59
2022/10/22 03:14:52;;;;;;;;;;;358.80;2329.60;;;;;;5011161;28;19940;-59
2022/10/22 03:17:18;;;;;;;;;;;358.80;2329.60;;;;;;5010843;28;20348;-59
2022/10/22 03:19:43;;;;;;;;;;;358.80;2329.60;;;;;;5010992;28;19956;-59
2022/10/22 03:22:11;;;;;;;;;;;358.80;2329.60;;;;;;5011011;28;19910;-59
2022/10/22 03:24:38;;;;;;;;;;;358.80;2329.60;;;;;;5010868;28;19910;-59
2022/10/22 03:27:04;;;;;;;;;;;358.80;2329.60;;;;;;5010763;28;19925;-60
2022/10/22 03:29:31;;;;;;;;;;;358.60;2329.60;;;;;;5010943;28;19917;-59
2022/10/22 03:31:56;;;;;;;;;;;358.60;2329.60;;;;;;5010651;28;19913;-60
2022/10/22 03:34:22;;;;;;;;;;;358.60;2329.60;;;;;;5010755;28;20064;-59
2022/10/22 03:36:48;;;;;;;;;;;358.60;2329.60;;;;;;5010338;28;19921;-59
2022/10/22 03:39:15;;;;;;;;;;;358.50;2329.60;;;;;;5010738;28;19955;-60
2022/10/22 03:41:41;;;;;;;;;;;333.60;2329.60;;;;;;5010795;28;20000;-59
2022/10/22 03:44:06;;;;;;;;;;;333.40;2329.60;;;;;;5010489;28;19947;-60
2022/10/22 03:46:32;;;;;;;;;;;333.50;2329.60;;;;;;5010740;28;19916;-60
2022/10/22 03:48:57;;;;;;;;;;;333.50;2329.60;;;;;;5009716;28;19918;-59
2022/10/22 03:51:25;;;;;;;;;;;333.60;2329.60;;;;;;5010706;28;19920;-59
2022/10/22 03:53:51;;;;;;;;;;;333.60;2329.60;;;;;;5010644;28;20279;-59
2022/10/22 03:56:16;;;;;;;;;;;333.70;2329.60;;;;;;5010552;28;19910;-60
2022/10/22 03:58:42;;;;;;;;;;;358.50;2329.60;;;;;;4992868;28;20000;-59
2022/10/22 04:01:08;;;;;;;;;;;358.50;2329.60;;;;;;5010148;28;19952;-59
2022/10/22 04:03:34;;;;;;;;;;;358.60;2329.60;;;;;;5010246;28;19909;-60
2022/10/22 04:06:00;;;;;;;;;;;358.50;2329.60;;;;;;5010412;28;19924;-60
2022/10/22 04:08:26;;;;;;;;;;;358.50;2329.60;;;;;;5010325;28;19971;-59
2022/10/22 04:10:51;;;;;;;;;;;358.60;2329.60;;;;;;5010527;28;19909;-59
2022/10/22 04:13:17;;;;;;;;;;;358.60;2329.60;;;;;;5010414;28;19961;-60
2022/10/22 04:15:42;;;;;;;;;;;358.60;2329.60;;;;;;5010505;28;20283;-59
2022/10/22 04:18:08;;;;;;;;;;;358.40;2329.60;;;;;;5010189;28;20326;-59
2022/10/22 04:20:33;;;;;;;;;;;358.40;2329.60;;;;;;5010409;28;19914;-60
2022/10/22 04:23:00;;;;;;;;;;;358.40;2329.60;;;;;;5010561;28;19916;-61
2022/10/22 04:25:26;;;;;;;;;;;333.70;2329.60;;;;;;5010299;28;20367;-59
2022/10/22 04:27:51;;;;;;;;;;;358.40;2329.60;;;;;;5010438;28;19917;-59
2022/10/22 04:30:17;;;;;;;;;;;358.40;2329.60;;;;;;5010175;28;20363;-59
2022/10/22 04:32:43;;;;;;;;;;;358.40;2329.60;;;;;;5010433;28;20256;-59
2022/10/22 04:35:08;;;;;;;;;;;358.40;2329.60;;;;;;5004705;28;19926;-59
2022/10/22 04:37:34;;;;;;;;;;;358.50;2329.60;;;;;;4990491;28;19917;-60
2022/10/22 04:39:59;;;;;;;;;;;358.60;2329.60;;;;;;4990591;28;19909;-60
2022/10/22 04:42:25;;;;;;;;;;;358.50;2329.60;;;;;;4990539;28;19917;-59
2022/10/22 04:44:50;;;;;;;;;;;358.50;2329.60;;;;;;4990689;28;19917;-60
2022/10/22 04:47:16;;;;;;;;;;;358.50;2329.60;;;;;;4990414;28;19914;-59
2022/10/22 04:49:41;;;;;;;;;;;358.50;2329.60;;;;;;4990399;28;19918;-59
2022/10/22 04:52:07;;;;;;;;;;;358.40;2329.60;;;;;;4990442;28;20016;-59
2022/10/22 04:54:32;;;;;;;;;;;358.40;2329.60;;;;;;4990419;28;20323;-60
2022/10/22 04:56:58;;;;;;;;;;;333.70;2329.60;;;;;;4990326;28;19910;-59
2022/10/22 04:59:24;;;;;;;;;;;333.70;2329.60;;;;;;4991351;28;19916;-59
2022/10/22 05:01:49;;;;;;;;;;;333.60;2329.60;;;;;;4976188;28;20296;-59
2022/10/22 05:04:16;;;;;;;;;;;333.70;2329.60;;;;;;4993655;28;20118;-60
2022/10/22 05:06:42;;;;;;;;;;;333.60;2329.60;;;;;;4975874;28;19917;-59
2022/10/22 05:09:10;;;;;;;;;;;333.60;2329.60;;;;;;4985501;28;20331;-60
2022/10/22 05:11:37;;;;;;;;;;;333.60;2329.60;;;;;;4993683;28;19967;-60
2022/10/22 05:14:04;;;;;;;;;;;333.50;2329.60;;;;;;4993731;28;20363;-60
2022/10/22 05:16:30;;;;;;;;;;;333.50;2329.60;;;;;;4993863;28;20370;-60
2022/10/22 05:18:56;;;;;;;;;;;333.50;2329.60;;;;;;4993326;28;19910;-60
2022/10/22 05:21:22;;;;;;;;;;;333.50;2329.60;;;;;;4993645;28;19945;-60
2022/10/22 05:23:49;;;;;;;;;;;333.50;2329.60;;;;;;4993381;28;19956;-59
2022/10/22 05:26:16;;;;;;;;;;;333.50;2329.60;;;;;;4993333;28;19910;-60
2022/10/22 05:28:41;;;;;;;;;;;333.40;2329.60;;;;;;4993345;28;19925;-60
2022/10/22 05:31:08;;;;;;;;;;;333.40;2329.60;;;;;;4993143;28;19910;-60
2022/10/22 05:33:34;;;;;;;;;;;333.50;2329.60;;;;;;4993427;28;19920;-59
2022/10/22 05:35:59;;;;;;;;;;;333.60;2329.60;;;;;;5004815;28;19925;-60
2022/10/22 05:38:25;;;;;;;;;;;333.60;2329.60;;;;;;5012735;28;19988;-60
2022/10/22 05:41:05;;;;;;;;;;;358.50;2329.60;;;;;;5012993;28;19949;-60
2022/10/22 05:43:30;;;;;;;;;;;358.70;2329.60;;;;;;5018481;28;20530;-60
2022/10/22 05:46:01;;;;;;;;;;;358.80;2329.60;;;;;;4996517;28;20004;-60
2022/10/22 05:48:27;;;;;;;;;;;358.80;2329.60;;;;;;5012773;28;19925;-59
2022/10/22 05:50:52;;;;;;;;;;;359.00;2329.60;;;;;;5023014;28;19917;-62
2022/10/22 05:53:18;;;;;;;;;;;359.00;2329.60;;;;;;5019920;28;20356;-60
2022/10/22 05:55:45;;;;;;;;;;;359.00;2329.60;;;;;;5021820;28;20362;-61
2022/10/22 05:58:14;;;;;;;;;;;358.90;2329.60;;;;;;5020779;28;19933;-60
2022/10/22 06:00:39;;;;;;;;;;;358.80;2329.60;;;;;;5020316;28;19909;-59
2022/10/22 06:03:05;;;;;;;;;;;358.80;2329.60;;;;;;4994439;28;19910;-59
2022/10/22 06:05:33;;;;;;;;;;;358.80;2329.60;;;;;;5014590;28;19936;-59
2022/10/22 06:07:59;;;;;;;;;;;358.60;2329.60;;;;;;5025476;28;19964;-60
2022/10/22 06:10:25;;;;;;;;;;;358.90;2329.60;;;;;;5011668;28;19913;-60
2022/10/22 06:12:50;;;;;;;;;;;359.00;2329.60;;;;;;5011901;28;19916;-60
2022/10/22 06:15:17;;;;;;;;;;;358.90;2329.60;;;;;;5012015;28;20260;-59
2022/10/22 06:17:43;;;;;;;;;;;359.10;2329.60;;;;;;5012110;28;20024;-61
2022/10/22 06:20:09;;;;;;;;;;;359.20;2329.60;;;;;;5011739;28;19988;-61
2022/10/22 06:22:35;;;;;;;;;;;359.20;2329.60;;;;;;5011811;28;20390;-60
2022/10/22 06:25:00;;;;;;;;;;;359.10;2329.60;;;;;;5011865;28;19909;-61
2022/10/22 06:27:26;;;;;;;;;;;384.00;2329.60;;;;;;5011825;28;19909;-61
2022/10/22 06:29:51;;;;;;;;;;;384.30;2329.60;;;;;;5027848;28;19975;-60
2022/10/22 06:32:17;;;;;;;;;;;384.80;2329.60;;;;;;5031348;28;19913;-60
2022/10/22 06:34:42;;;;;;;;;;;410.10;2355.20;;;;;;5031472;28;19918;-60
2022/10/22 06:37:08;;;;;;;;;;;435.20;2355.20;;;;;;5031269;28;20399;-60
2022/10/22 06:39:34;;;;;;;;;;;435.40;2355.20;;;;;;5031447;28;19909;-60
2022/10/22 06:41:59;;;;;;;;;;;435.40;2355.20;;;;;;5031545;28;19915;-61
2022/10/22 06:44:25;;;;;;;;;;;435.40;2355.20;;;;;;5031169;28;19939;-61
2022/10/22 06:46:51;;;;;;;;;;;435.60;2355.20;;;;;;5031195;28;19909;-61
2022/10/22 06:49:17;;;;;;;;;;;435.90;2355.20;;;;;;5030857;28;19971;-59
2022/10/22 06:51:43;;;;;;;;;;;436.10;2355.20;;;;;;5031316;28;20016;-59
2022/10/22 06:54:09;;;;;;;;;;;460.80;2380.80;;;;;;5030981;28;19970;-62
2022/10/22 06:56:35;;;;;;;;;;;460.90;2380.80;;;;;;5030690;28;20278;-60
2022/10/22 06:59:00;;;;;;;;;;;461.10;2380.80;;;;;;5031147;28;19996;-60
2022/10/22 07:01:31;;;;;;;;;;;461.10;2380.80;;;;;;5030854;28;19909;-60
2022/10/22 07:03:57;;;;;;;;;;;461.10;2380.80;;;;;;5030672;28;19915;-60
2022/10/22 07:06:23;;;;;;;;;;;461.10;2380.80;;;;;;5030880;28;20004;-60
2022/10/22 07:08:48;;;;;;;;;;;460.90;2380.80;;;;;;5030636;28;19924;-60
2022/10/22 07:11:24;;;;;;;;;;;461.40;2380.80;;;;;;5031024;28;19909;-62
2022/10/22 07:13:50;;;;;;;;;;;486.40;2380.80;;;;;;5030872;28;19913;-60
2022/10/22 07:16:17;;;;;;;;;;;487.00;2380.80;;;;;;5011911;28;21341;-62
2022/10/22 07:18:43;;;;;;;;;;;487.10;2329.60;;;;;;5011188;28;19968;-60
2022/10/22 07:21:10;;;;;;;;;;;512.10;2252.80;;;;;;5010934;28;19957;-60
2022/10/22 07:23:35;;;;;;;;;;;487.20;2227.20;;;;;;5010605;28;20414;-60
2022/10/22 07:26:05;;;;;;;;;;;486.90;2304.00;;;;;;5011078;28;19953;-61
2022/10/22 07:28:32;;;;;;;;;;;486.50;2329.60;;;;;;5011029;28;19924;-59
2022/10/22 07:30:58;;;;;;;;;;;461.60;2380.80;;;;;;5015978;28;19921;-59
2022/10/22 07:33:23;;;;;;;;;;;487.30;2278.40;;;;;;5010966;28;19925;-59
2022/10/22 07:35:49;;;;;;;;;;;563.60;2073.60;;;;;;5010377;28;20140;-60
2022/10/22 07:38:14;;;;;;;;;;;614.60;1894.40;;;;;;5010393;28;19914;-60
2022/10/22 07:40:40;;;;;;;;;;;640.60;1715.20;;;;;;5013457;28;19909;-60
2022/10/22 07:43:05;;;;;;;;;;;666.20;1612.80;;;;;;5019587;28;19914;-61
2022/10/22 07:45:32;;;;;;;;;;;691.50;1561.60;;;;;;5024729;28;19909;-60
2022/10/22 07:47:59;;;;;;;;;;;716.80;1510.40;;;;;;5030342;28;20287;-60
2022/10/22 07:50:25;;;;;;;;;;;717.40;1484.80;;;;;;5030368;28;19913;-61
2022/10/22 07:52:51;;;;;;;;;;;742.90;1459.20;;;;;;5030465;28;19909;-60
2022/10/22 07:55:16;;;;;;;;;;;793.70;1382.40;;;;;;5030062;28;20000;-61
2022/10/22 07:57:42;;;;;;;;;;;794.30;1331.20;;;;;;5030281;28;19917;-61
2022/10/22 08:00:08;;;;;;;;;;;793.80;1356.80;;;;;;5030232;28;20359;-60
2022/10/22 08:02:34;;;;;;;;;;;820.00;1280.00;;;;;;5030277;28;20363;-60
2022/10/22 08:04:59;;;;;;;;;;;819.90;1280.00;;;;;;5030303;28;20005;-61
2022/10/22 08:07:25;;;;;;;;;;;845.50;1280.00;;;;;;5020278;28;19993;-61
2022/10/22 08:09:51;;;;;;;;;;;845.70;1228.80;;;;;;5016698;28;19922;-61
2022/10/22 08:12:16;;;;;;;;;;;845.60;1254.40;;;;;;5022085;28;19955;-60
2022/10/22 08:14:42;;;;;;;;;;;845.70;1254.40;;;;;;5020308;28;19917;-61
2022/10/22 08:17:07;;;;;;;;;;;845.60;1254.40;;;;;;5024099;28;19917;-61
2022/10/22 08:19:34;;;;;;;;;;;845.70;1254.40;;;;;;5016068;28;19918;-61
2022/10/22 08:21:59;;;;;;;;;;;871.10;1228.80;;;;;;5010269;28;19909;-62
2022/10/22 08:24:25;;;;;;;;;;;870.80;1203.20;;;;;;5010195;28;19909;-60
2022/10/22 08:26:53;;;;;;;;;;;871.10;1177.60;;;;;;5010636;28;19945;-61
2022/10/22 08:29:21;;;;;;;;;;;896.40;1100.80;;;;;;5010400;28;19917;-61
2022/10/22 08:31:47;;;;;;;;;;;870.80;1177.60;;;;;;5009997;28;20305;-61
2022/10/22 08:34:12;;;;;;;;;;;921.60;1100.80;;;;;;5010916;28;19924;-61
2022/10/22 08:36:38;;;;;;;;;;;871.10;1126.40;;;;;;5013442;28;20387;-61
2022/10/22 08:39:03;;;;;;;;;;;844.90;1203.20;;;;;;5014013;28;20364;-61
2022/10/22 08:41:29;;;;;;;;;;;845.60;1152.00;;;;;;5013973;28;19909;-60
2022/10/22 08:44:13;;;;;;;;;;;819.80;1152.00;;;;;;5013857;28;19910;-60
2022/10/22 08:46:44;;;;;;;;;;;768.30;1228.80;;;;;;5026357;28;19913;-60
2022/10/22 08:49:19;;;;;;;;;;;768.40;1305.60;;;;;;5032946;28;19960;-60
2022/10/22 08:51:45;;;;;;;;;;;768.20;1280.00;;;;;;5015596;28;20019;-59
2022/10/22 08:54:15;;;;;;;;;;;717.70;1254.40;;;;;;5013565;28;19909;-59
2022/10/22 08:56:43;;;;;;;;;;;716.90;1331.20;;;;;;5013494;28;19910;-59
2022/10/22 08:59:26;;;;;;;;;;;691.90;1331.20;;;;;;5013457;28;20013;-58
2022/10/22 09:01:52;;;;;;;;;;;691.50;1356.80;;;;;;5017726;28;20286;-58
2022/10/22 09:04:24;;;;;;;;;;;691.40;1382.40;;;;;;5024099;28;20017;-59
2022/10/22 09:06:51;;;;;;;;;;;691.30;1382.40;;;;;;5030743;28;19913;-57
2022/10/22 09:09:17;;;;;;;;;;;691.30;1382.40;;;;;;5032853;28;19917;-59
2022/10/22 09:11:44;;;;;;;;;;;666.50;1382.40;;;;;;5033182;28;19909;-59
2022/10/22 09:14:20;;;;;;;;;;;666.10;1382.40;;;;;;5032860;28;19909;-57
2022/10/22 09:16:49;;;;;;;;;;;665.70;1382.40;;;;;;5032852;28;20367;-58
2022/10/22 09:19:17;;;;;;;;;;;640.90;1382.40;;;;;;5032960;28;19909;-59
2022/10/22 09:21:48;;;;;;;;;;;640.90;1382.40;;;;;;5033054;28;19913;-59
2022/10/22 09:24:32;;;;;;;;;;;665.90;1382.40;;;;;;5032729;28;20367;-60
2022/10/22 09:26:58;;;;;;;;;;;665.90;1382.40;;;;;;5032124;28;19967;-60
2022/10/22 09:29:25;;;;;;;;;;;666.00;1382.40;;;;;;5032864;28;19920;-60
2022/10/22 09:31:51;;;;;;;;;;;665.90;1382.40;;;;;;5033063;28;19909;-59
2022/10/22 09:34:20;;;;;;;;;;;640.40;1382.40;;;;;;5032457;28;19917;-59
2022/10/22 09:36:45;;;;;;;;;;;640.40;1433.60;;;;;;5032225;28;20458;-59
2022/10/22 09:39:21;;;;;;;;;;;640.40;1459.20;;;;;;5032685;28;20003;-60
2022/10/22 09:41:48;;;;;;;;;;;640.50;1459.20;;;;;;5032748;28;19991;-59
2022/10/22 09:44:13;;;;;;;;;;;640.50;1484.80;;;;;;5032883;28;19913;-59
2022/10/22 09:46:42;;;;;;;;;;;640.40;1484.80;;;;;;5030324;28;19932;-60
2022/10/22 09:49:13;;;;;;;;;;;640.70;1484.80;;;;;;5032330;28;20298;-60
2022/10/22 09:52:05;;;;;;;;;;;640.90;1459.20;;;;;;5032196;28;19932;-59
2022/10/22 09:54:30;;;;;;;;;;;665.70;1484.80;;;;;;5027370;28;19920;-59
2022/10/22 09:56:57;;;;;;;;;;;640.50;1459.20;;;;;;5032400;28;19909;-59
2022/10/22 09:59:28;;;;;;;;;;;640.80;1459.20;;;;;;5032261;28;20003;-59
2022/10/22 10:01:58;;;;;;;;;;;640.50;1433.60;;;;;;5032203;28;19913;-59
2022/10/22 10:04:23;;;;;;;;;;;640.20;1433.60;;;;;;5032028;28;19921;-58
2022/10/22 10:06:53;;;;;;;;;;;640.70;1408.00;;;;;;5031958;28;20375;-60
2022/10/22 10:09:20;;;;;;;;;;;640.70;1382.40;;;;;;5032083;28;19924;-58
2022/10/22 10:12:06;;;;;;;;;;;640.80;1408.00;;;;;;5031965;28;19988;-59
2022/10/22 10:14:43;;;;;;;;;;;640.90;1382.40;;;;;;5031327;28;20267;-59
2022/10/22 10:17:15;;;;;;;;;;;665.80;1408.00;;;;;;5013964;28;19916;-57
2022/10/22 10:19:44;;;;;;;;;;;665.90;1382.40;;;;;;5032050;28;19913;-59
2022/10/22 10:22:09;;;;;;;;;;;640.70;1356.80;;;;;;5031871;28;19917;-60
2022/10/22 10:24:50;;;;;;;;;;;665.60;1382.40;;;;;;5031512;28;19909;-58
2022/10/22 10:27:22;;;;;;;;;;;665.60;1331.20;;;;;;5013760;28;19949;-58
2022/10/22 10:29:55;;;;;;;;;;;640.90;1331.20;;;;;;5031487;28;19939;-57
2022/10/22 10:32:39;;;;;;;;;;;665.70;1331.20;;;;;;5031680;28;20260;-59
2022/10/22 10:35:19;;;;;;;;;;;666.20;1305.60;;;;;;5031093;28;19944;-58
2022/10/22 10:37:46;;;;;;;;;;;665.80;1331.20;;;;;;5031300;28;20275;-59
2022/10/22 10:40:29;;;;;;;;;;;665.70;1356.80;;;;;;5031373;28;20011;-59
2022/10/22 10:43:05;;;;;;;;;;;665.60;1356.80;;;;;;5031180;28;19909;-59
2022/10/22 10:45:52;;;;;;;;;;;640.90;1331.20;;;;;;5031379;28;19909;-60
2022/10/22 10:48:30;;;;;;;;;;;640.90;1331.20;;;;;;5031000;28;19967;-59
2022/10/22 10:51:01;;;;;;;;;;;640.70;1331.20;;;;;;5031228;28;19916;-60
2022/10/22 10:53:45;;;;;;;;;;;640.70;1305.60;;;;;;5031383;28;19909;-58
2022/10/22 10:56:35;;;;;;;;;;;640.40;1305.60;;;;;;5031231;28;19909;-60
2022/10/22 10:59:00;;;;;;;;;;;640.50;1331.20;;;;;;5031046;28;20004;-60
2022/10/22 11:01:29;;;;;;;;;;;640.50;1408.00;;;;;;5030923;28;20003;-59
2022/10/22 11:03:57;;;;;;;;;;;640.50;1356.80;;;;;;5030738;28;19991;-59
2022/10/22 11:06:24;;;;;;;;;;;640.80;1356.80;;;;;;5031113;28;19917;-59
2022/10/22 11:08:58;;;;;;;;;;;640.90;1331.20;;;;;;5030743;28;19917;-60
2022/10/22 11:11:33;;;;;;;;;;;665.70;1331.20;;;;;;5030943;28;19913;-60
2022/10/22 11:14:18;;;;;;;;;;;666.00;1331.20;;;;;;5030719;28;19909;-58
2022/10/22 11:16:47;;;;;;;;;;;666.10;1305.60;;;;;;5030740;28;20453;-58
2022/10/22 11:19:32;;;;;;;;;;;665.90;1331.20;;;;;;5030827;28;19914;-58
2022/10/22 11:22:04;;;;;;;;;;;666.20;1356.80;;;;;;5030436;28;19960;-59
2022/10/22 11:24:35;;;;;;;;;;;666.00;1382.40;;;;;;5030860;28;19961;-58
2022/10/22 11:27:04;;;;;;;;;;;665.70;1356.80;;;;;;5030607;28;19999;-60
2022/10/22 11:29:33;;;;;;;;;;;665.70;1331.20;;;;;;5030961;28;20008;-58
2022/10/22 11:32:00;;;;;;;;;;;665.70;1356.80;;;;;;5030755;28;19952;-59
2022/10/22 11:34:30;;;;;;;;;;;665.60;1356.80;;;;;;5030381;28;19917;-59
2022/10/22 11:36:56;;;;;;;;;;;665.80;1331.20;;;;;;5030147;28;19927;-60
2022/10/22 11:39:30;;;;;;;;;;;665.80;1356.80;;;;;;5030670;28;20355;-58
2022/10/22 11:41:57;;;;;;;;;;;665.80;1331.20;;;;;;5029966;28;19916;-59
2022/10/22 11:44:24;;;;;;;;;;;665.80;1331.20;;;;;;5030434;28;19960;-60
2022/10/22 11:46:57;;;;;;;;;;;665.70;1356.80;;;;;;5030623;28;19913;-60
2022/10/22 11:49:23;;;;;;;;;;;665.70;1356.80;;;;;;5027698;28;19940;-60
2022/10/22 11:51:49;;;;;;;;;;;665.80;1356.80;;;;;;5028541;28;19909;-59
2022/10/22 11:54:29;;;;;;;;;;;665.70;1382.40;;;;;;5028428;28;19917;-59
2022/10/22 11:57:15;;;;;;;;;;;665.80;1382.40;;;;;;5028428;28;20298;-60
2022/10/22 11:59:48;;;;;;;;;;;665.70;1408.00;;;;;;5029182;28;20314;-59
2022/10/22 12:02:33;;;;;;;;;;;665.90;1408.00;;;;;;5028020;28;19916;-58
2022/10/22 12:05:17;;;;;;;;;;;665.80;1356.80;;;;;;5028533;28;19917;-60
2022/10/22 12:08:01;;;;;;;;;;;666.00;1356.80;;;;;;5028780;28;19909;-60
2022/10/22 12:10:32;;;;;;;;;;;666.10;1331.20;;;;;;5031421;28;19967;-59
2022/10/22 12:13:09;;;;;;;;;;;666.00;1356.80;;;;;;5032498;28;19955;-60
2022/10/22 12:15:45;;;;;;;;;;;666.10;1331.20;;;;;;5032002;28;19967;-60
2022/10/22 12:18:11;;;;;;;;;;;666.00;1331.20;;;;;;5032471;28;19916;-58
2022/10/22 12:20:36;;;;;;;;;;;666.10;1331.20;;;;;;5032191;28;20256;-59
2022/10/22 12:23:02;;;;;;;;;;;666.10;1305.60;;;;;;5032477;28;19923;-57
2022/10/22 12:25:29;;;;;;;;;;;666.20;1305.60;;;;;;5032329;28;19909;-60
2022/10/22 12:27:56;;;;;;;;;;;666.30;1305.60;;;;;;5031823;28;19944;-59
2022/10/22 12:30:22;;;;;;;;;;;666.30;1280.00;;;;;;5032428;28;20401;-60
2022/10/22 12:32:50;;;;;;;;;;;666.30;1305.60;;;;;;5031194;28;20020;-58
2022/10/22 12:35:17;;;;;;;;;;;666.30;1331.20;;;;;;5031546;28;20371;-60
2022/10/22 12:37:44;;;;;;;;;;;666.30;1305.60;;;;;;5032274;28;20483;-59
2022/10/22 12:40:22;;;;;;;;;;;666.00;1331.20;;;;;;5031173;28;19971;-57
2022/10/22 12:42:57;;;;;;;;;;;666.00;1331.20;;;;;;5023951;28;19913;-60
2022/10/22 12:45:27;;;;;;;;;;;665.90;1331.20;;;;;;5032025;28;19913;-58
2022/10/22 12:47:57;;;;;;;;;;;665.90;1331.20;;;;;;5018426;28;19909;-58
2022/10/22 12:50:28;;;;;;;;;;;665.90;1356.80;;;;;;5012181;28;19917;-58
2022/10/22 12:52:54;;;;;;;;;;;666.00;1331.20;;;;;;5012461;28;19983;-60
2022/10/22 12:55:21;;;;;;;;;;;666.10;1356.80;;;;;;5011831;28;19910;-59
2022/10/22 12:57:48;;;;;;;;;;;666.00;1356.80;;;;;;5011758;28;19917;-58
2022/10/22 13:00:25;;;;;;;;;;;666.20;1331.20;;;;;;5011848;28;19913;-59
2022/10/22 13:02:51;;;;;;;;;;;666.20;1356.80;;;;;;5012071;28;19983;-59
2022/10/22 13:05:17;;;;;;;;;;;666.20;1331.20;;;;;;5011607;28;19940;-58
2022/10/22 13:07:47;;;;;;;;;;;666.30;1331.20;;;;;;5011726;28;20387;-59
2022/10/22 13:10:18;;;;;;;;;;;666.30;1331.20;;;;;;5011811;28;19964;-60
2022/10/22 13:12:48;;;;;;;;;;;666.30;1331.20;;;;;;5011511;28;19968;-60
2022/10/22 13:15:34;;;;;;;;;;;666.30;1305.60;;;;;;5011766;28;19909;-59
2022/10/22 13:18:03;;;;;;;;;;;666.20;1356.80;;;;;;5016555;28;19956;-58
2022/10/22 13:20:29;;;;;;;;;;;666.10;1382.40;;;;;;5018313;28;19936;-60
2022/10/22 13:23:02;;;;;;;;;;;666.10;1382.40;;;;;;5011465;28;19913;-58
2022/10/22 13:25:35;;;;;;;;;;;666.00;1382.40;;;;;;5011038;28;19917;-60
2022/10/22 13:28:09;;;;;;;;;;;665.90;1408.00;;;;;;5011580;28;20268;-59
2022/10/22 13:30:36;;;;;;;;;;;665.80;1382.40;;;;;;5011405;28;19919;-58
2022/10/22 13:33:03;;;;;;;;;;;666.00;1382.40;;;;;;5011462;28;19917;-59
2022/10/22 13:35:31;;;;;;;;;;;666.00;1382.40;;;;;;5010981;28;19987;-59
2022/10/22 13:37:57;;;;;;;;;;;665.90;1382.40;;;;;;4992978;28;19920;-60
2022/10/22 13:40:22;;;;;;;;;;;665.90;1408.00;;;;;;5011170;28;19913;-59
2022/10/22 13:42:48;;;;;;;;;;;665.90;1408.00;;;;;;5011222;28;20422;-60
2022/10/22 13:45:14;;;;;;;;;;;665.90;1408.00;;;;;;5011350;28;19920;-58
2022/10/22 13:47:39;;;;;;;;;;;666.00;1408.00;;;;;;5011405;28;19913;-58
2022/10/22 13:50:11;;;;;;;;;;;666.20;1408.00;;;;;;5016526;28;20286;-59